createdAt,value
2019-01-27T00:00:10.796Z,2.50
2019-01-27T00:02:15.055Z,2.37
2019-01-27T00:04:18.963Z,1.70
2019-01-27T00:06:23.414Z,2.10
2019-01-27T00:08:28.068Z,1.80
2019-01-27T00:10:32.038Z,2.93
2019-01-27T00:12:35.901Z,2.17
2019-01-27T00:14:39.875Z,2.10
2019-01-27T00:16:43.856Z,1.60
2019-01-27T00:18:47.764Z,1.87
2019-01-27T00:20:51.798Z,1.60
2019-01-27T00:22:56.112Z,1.70
2019-01-27T00:25:00.059Z,2.17
2019-01-27T00:27:04.692Z,2.10
2019-01-27T00:29:08.617Z,1.93
2019-01-27T00:31:12.583Z,4.27
2019-01-27T00:33:16.460Z,1.87
2019-01-27T00:35:20.938Z,1.83
2019-01-27T00:37:25.263Z,1.70
2019-01-27T00:39:29.199Z,1.60
2019-01-27T00:41:33.240Z,2.63
2019-01-27T00:43:37.179Z,1.50
2019-01-27T00:45:41.211Z,4.33
2019-01-27T00:47:45.066Z,2.37
2019-01-27T00:49:48.971Z,1.93
2019-01-27T00:51:53.262Z,1.50
2019-01-27T00:53:57.235Z,1.80
2019-01-27T00:56:01.320Z,1.90
2019-01-27T00:58:05.351Z,1.60
2019-01-27T01:00:11.550Z,4.53
2019-01-27T01:02:15.427Z,2.00
2019-01-27T01:04:19.379Z,2.13
2019-01-27T01:06:23.726Z,1.60
2019-01-27T01:08:27.998Z,1.90
2019-01-27T01:10:32.039Z,1.83
2019-01-27T01:12:35.985Z,2.00
2019-01-27T01:14:39.917Z,1.63
2019-01-27T01:16:44.135Z,1.70
2019-01-27T01:18:48.065Z,1.50
2019-01-27T01:20:53.059Z,1.97
2019-01-27T01:22:58.615Z,1.40
2019-01-27T01:25:02.852Z,2.97
2019-01-27T01:27:07.195Z,1.43
2019-01-27T01:29:30.745Z,1.90
2019-01-27T01:31:34.753Z,1.70
2019-01-27T01:33:38.595Z,1.87
2019-01-27T01:35:42.784Z,1.43
2019-01-27T01:37:46.763Z,1.67
2019-01-27T01:39:50.629Z,1.50
2019-01-27T01:41:55.210Z,1.40
2019-01-27T01:43:59.386Z,1.30
2019-01-27T01:46:03.452Z,1.50
2019-01-27T01:48:07.807Z,1.80
2019-01-27T01:50:11.708Z,1.70
2019-01-27T01:52:15.486Z,2.23
2019-01-27T01:54:19.365Z,1.53
2019-01-27T01:56:23.714Z,1.40
2019-01-27T01:58:27.757Z,1.30
2019-01-27T02:00:31.863Z,1.33
2019-01-27T02:02:35.807Z,1.30
2019-01-27T02:04:39.602Z,1.33
2019-01-27T02:06:43.587Z,1.37
2019-01-27T02:08:47.339Z,1.43
2019-01-27T02:10:51.191Z,1.37
2019-01-27T02:12:55.978Z,1.33
2019-01-27T02:15:00.347Z,1.37
2019-01-27T02:17:04.185Z,1.20
2019-01-27T02:19:08.430Z,1.50
2019-01-27T02:21:12.358Z,1.30
2019-01-27T02:23:16.161Z,1.13
2019-01-27T02:25:20.210Z,1.30
2019-01-27T02:27:43.442Z,1.23
2019-01-27T02:29:47.193Z,1.30
2019-01-27T02:31:51.156Z,1.30
2019-01-27T02:33:55.667Z,1.37
2019-01-27T02:35:59.919Z,1.20
2019-01-27T02:38:04.234Z,1.17
2019-01-27T02:40:08.199Z,0.97
2019-01-27T02:42:12.093Z,1.20
2019-01-27T02:44:15.934Z,1.23
2019-01-27T02:46:19.875Z,1.00
2019-01-27T02:48:24.266Z,1.10
2019-01-27T02:50:28.347Z,1.30
2019-01-27T02:52:32.360Z,1.07
2019-01-27T02:54:36.151Z,0.93
2019-01-27T02:56:40.176Z,1.67
2019-01-27T02:58:43.913Z,0.93
2019-01-27T03:00:47.780Z,2.40
2019-01-27T03:02:51.963Z,1.10
2019-01-27T03:04:58.231Z,0.87
2019-01-27T03:07:15.439Z,1.10
2019-01-27T03:09:29.553Z,0.83
2019-01-27T03:11:47.368Z,0.80
2019-01-27T03:13:51.324Z,0.97
2019-01-27T03:15:55.790Z,0.90
2019-01-27T03:18:00.035Z,0.80
2019-01-27T03:20:06.322Z,1.10
2019-01-27T03:22:10.282Z,0.80
2019-01-27T03:24:14.116Z,0.70
2019-01-27T03:26:18.002Z,1.43
2019-01-27T03:28:21.939Z,0.70
2019-01-27T03:30:26.974Z,0.80
2019-01-27T03:32:32.528Z,1.20
2019-01-27T03:34:36.606Z,0.80
2019-01-27T03:36:40.473Z,0.80
2019-01-27T03:38:44.291Z,0.97
2019-01-27T03:40:48.184Z,1.00
2019-01-27T03:42:52.046Z,1.00
2019-01-27T03:44:56.842Z,0.80
2019-01-27T03:47:00.891Z,0.90
2019-01-27T03:49:06.534Z,0.80
2019-01-27T03:51:10.276Z,0.80
2019-01-27T03:53:14.201Z,0.60
2019-01-27T03:55:18.686Z,0.90
2019-01-27T03:57:22.449Z,0.83
2019-01-27T03:59:27.173Z,0.80
2019-01-27T04:01:31.404Z,0.80
2019-01-27T04:03:35.539Z,0.60
2019-01-27T04:05:39.487Z,0.40
2019-01-27T04:07:43.421Z,0.70
2019-01-27T04:09:47.242Z,0.60
2019-01-27T04:11:51.196Z,0.60
2019-01-27T04:13:55.725Z,0.43
2019-01-27T04:15:59.940Z,0.70
2019-01-27T04:18:04.364Z,0.60
2019-01-27T04:20:14.247Z,0.77
2019-01-27T04:22:18.148Z,0.57
2019-01-27T04:24:22.149Z,0.50
2019-01-27T04:26:26.561Z,0.60
2019-01-27T04:28:30.909Z,0.60
2019-01-27T04:30:37.178Z,0.50
2019-01-27T04:32:42.088Z,0.50
2019-01-27T04:34:45.880Z,0.40
2019-01-27T04:36:49.997Z,0.47
2019-01-27T04:38:54.062Z,0.60
2019-01-27T04:40:58.418Z,0.40
2019-01-27T04:43:02.494Z,0.40
2019-01-27T04:45:07.767Z,0.53
2019-01-27T04:47:11.526Z,0.37
2019-01-27T04:49:15.355Z,0.47
2019-01-27T04:51:19.212Z,0.30
2019-01-27T04:53:23.001Z,0.57
2019-01-27T04:55:27.686Z,0.27
2019-01-27T04:57:31.739Z,0.43
2019-01-27T04:59:35.760Z,0.60
2019-01-27T05:01:39.810Z,0.47
2019-01-27T05:04:01.131Z,0.73
2019-01-27T05:06:05.245Z,0.40
2019-01-27T05:08:09.095Z,0.40
2019-01-27T05:10:13.092Z,0.53
2019-01-27T05:12:16.939Z,0.50
2019-01-27T05:14:20.724Z,0.50
2019-01-27T05:16:24.850Z,1.13
2019-01-27T05:18:29.054Z,0.40
2019-01-27T05:20:33.067Z,0.60
2019-01-27T05:22:36.991Z,0.43
2019-01-27T05:24:40.783Z,0.63
2019-01-27T05:26:45.022Z,0.60
2019-01-27T05:28:48.855Z,0.50
2019-01-27T05:30:52.737Z,1.37
2019-01-27T05:32:58.063Z,0.50
2019-01-27T05:35:02.146Z,0.50
2019-01-27T05:37:06.151Z,0.60
2019-01-27T05:39:10.188Z,0.60
2019-01-27T05:41:14.084Z,0.53
2019-01-27T05:43:17.837Z,0.77
2019-01-27T05:45:22.295Z,0.60
2019-01-27T05:47:45.482Z,1.20
2019-01-27T05:49:50.261Z,0.60
2019-01-27T05:51:54.221Z,0.70
2019-01-27T05:53:58.982Z,0.50
2019-01-27T05:56:02.934Z,0.50
2019-01-27T05:58:07.062Z,0.50
2019-01-27T06:00:18.914Z,0.60
2019-01-27T06:02:22.747Z,0.30
2019-01-27T06:04:27.334Z,0.50
2019-01-27T06:06:31.556Z,0.80
2019-01-27T06:08:35.606Z,0.67
2019-01-27T06:10:39.482Z,0.80
2019-01-27T06:12:43.278Z,0.70
2019-01-27T06:14:47.209Z,0.70
2019-01-27T06:16:51.007Z,0.60
2019-01-27T06:18:54.925Z,0.60
2019-01-27T06:20:59.362Z,0.50
2019-01-27T06:23:03.443Z,0.60
2019-01-27T06:25:09.528Z,0.77
2019-01-27T06:27:13.380Z,1.20
2019-01-27T06:29:17.303Z,0.50
2019-01-27T06:31:21.089Z,0.60
2019-01-27T06:33:47.291Z,0.47
2019-01-27T06:35:51.982Z,0.70
2019-01-27T06:37:56.377Z,0.50
2019-01-27T06:40:00.399Z,0.40
2019-01-27T06:42:04.695Z,0.50
2019-01-27T06:44:08.647Z,0.40
2019-01-27T06:46:12.445Z,0.47
2019-01-27T06:48:16.372Z,1.07
2019-01-27T06:50:20.347Z,0.60
2019-01-27T06:52:24.247Z,0.30
2019-01-27T06:54:28.832Z,0.50
2019-01-27T06:56:32.955Z,0.50
2019-01-27T06:58:54.577Z,0.60
2019-01-27T07:01:07.496Z,0.40
2019-01-27T07:03:17.005Z,1.13
2019-01-27T07:05:27.307Z,0.60
2019-01-27T07:07:56.690Z,0.60
2019-01-27T07:10:22.871Z,0.83
2019-01-27T07:12:46.422Z,0.40
2019-01-27T07:15:08.478Z,1.50
2019-01-27T07:17:30.210Z,0.40
2019-01-27T07:19:53.295Z,0.70
2019-01-27T07:22:29.474Z,0.70
2019-01-27T07:24:45.547Z,1.30
2019-01-27T07:27:20.227Z,0.80
2019-01-27T07:29:53.267Z,1.00
2019-01-27T07:32:19.266Z,0.60
2019-01-27T07:34:45.486Z,0.80
2019-01-27T07:37:01.339Z,0.60
2019-01-27T07:39:16.466Z,1.17
2019-01-27T07:41:45.439Z,0.47
2019-01-27T07:44:06.573Z,1.53
2019-01-27T07:46:29.587Z,0.47
2019-01-27T07:48:49.999Z,0.60
2019-01-27T07:51:03.514Z,0.47
2019-01-27T07:53:27.366Z,0.50
2019-01-27T07:55:39.715Z,0.40
2019-01-27T07:58:04.414Z,0.60
2019-01-27T08:00:24.078Z,0.97
2019-01-27T08:02:38.428Z,0.50
2019-01-27T08:05:01.386Z,0.40
2019-01-27T08:07:23.527Z,0.53
2019-01-27T08:09:53.644Z,1.93
2019-01-27T08:12:26.214Z,1.43
2019-01-27T08:14:45.071Z,0.40
2019-01-27T08:17:06.831Z,0.63
2019-01-27T08:19:27.153Z,0.60
2019-01-27T08:21:56.710Z,1.10
2019-01-27T08:24:35.032Z,0.60
2019-01-27T08:27:03.986Z,0.60
2019-01-27T08:29:28.144Z,1.20
2019-01-27T08:31:54.648Z,0.40
2019-01-27T08:34:18.241Z,0.50
2019-01-27T08:36:31.428Z,3.20
2019-01-27T08:38:53.861Z,0.30
2019-01-27T08:41:29.413Z,0.33
2019-01-27T08:43:50.127Z,0.60
2019-01-27T08:46:07.774Z,0.50
2019-01-27T08:48:11.610Z,0.50
2019-01-27T08:50:17.235Z,1.80
2019-01-27T08:52:21.114Z,0.53
2019-01-27T08:54:24.929Z,4.70
2019-01-27T08:56:29.324Z,1.70
2019-01-27T08:58:33.502Z,0.97
2019-01-27T09:00:38.719Z,0.80
2019-01-27T09:02:53.286Z,1.77
2019-01-27T09:05:01.640Z,1.10
2019-01-27T09:07:25.202Z,0.63
2019-01-27T09:09:51.894Z,0.60
2019-01-27T09:12:13.710Z,2.03
2019-01-27T09:14:28.310Z,1.13
2019-01-27T09:16:51.470Z,1.47
2019-01-27T09:19:03.670Z,0.63
2019-01-27T09:21:31.740Z,0.60
2019-01-27T09:23:48.281Z,0.57
2019-01-27T09:26:16.648Z,1.73
2019-01-27T09:28:41.964Z,0.33
2019-01-27T09:31:20.147Z,0.50
2019-01-27T09:33:41.984Z,0.53
2019-01-27T09:36:22.983Z,0.50
2019-01-27T09:38:46.609Z,1.83
2019-01-27T09:41:08.532Z,0.50
2019-01-27T09:43:34.516Z,0.60
2019-01-27T09:46:11.362Z,1.13
2019-01-27T09:48:36.792Z,1.07
2019-01-27T09:50:50.170Z,2.00
2019-01-27T09:53:01.063Z,1.00
2019-01-27T09:55:12.227Z,0.60
2019-01-27T09:57:47.339Z,1.30
2019-01-27T10:00:02.527Z,0.90
2019-01-27T10:02:38.162Z,0.80
2019-01-27T10:05:01.051Z,0.60
2019-01-27T10:07:27.468Z,1.00
2019-01-27T10:09:50.742Z,1.43
2019-01-27T10:12:09.286Z,0.83
2019-01-27T10:14:32.399Z,1.10
2019-01-27T10:16:54.395Z,2.23
2019-01-27T10:19:24.314Z,2.53
2019-01-27T10:21:34.753Z,1.27
2019-01-27T10:24:00.776Z,1.20
2019-01-27T10:26:12.755Z,0.80
2019-01-27T10:28:45.289Z,2.13
2019-01-27T10:31:17.058Z,0.97
2019-01-27T10:33:49.355Z,2.20
2019-01-27T10:36:09.742Z,3.27
2019-01-27T10:38:32.803Z,2.67
2019-01-27T10:40:44.502Z,0.83
2019-01-27T10:43:13.650Z,1.27
2019-01-27T10:45:48.892Z,2.90
2019-01-27T10:48:10.678Z,3.80
2019-01-27T10:50:41.535Z,2.93
2019-01-27T10:52:56.894Z,1.60
2019-01-27T10:55:13.084Z,3.80
2019-01-27T10:57:26.711Z,2.13
2019-01-27T10:59:58.994Z,1.70
2019-01-27T11:02:22.071Z,2.13
2019-01-27T11:04:45.157Z,3.00
2019-01-27T11:06:56.701Z,2.70
2019-01-27T11:09:16.255Z,3.13
2019-01-27T11:11:32.167Z,2.83
2019-01-27T11:14:01.604Z,2.53
2019-01-27T11:16:18.653Z,3.53
2019-01-27T11:18:33.842Z,2.90
2019-01-27T11:21:01.015Z,2.83
2019-01-27T11:23:24.019Z,3.20
2019-01-27T11:25:39.666Z,2.53
2019-01-27T11:28:05.732Z,4.90
2019-01-27T11:30:25.208Z,2.77
2019-01-27T11:32:54.225Z,2.73
2019-01-27T11:35:07.007Z,3.93
2019-01-27T11:37:36.222Z,5.00
2019-01-27T11:39:58.057Z,5.10
2019-01-27T11:42:20.578Z,3.03
2019-01-27T11:44:44.096Z,2.43
2019-01-27T11:47:07.897Z,3.40
2019-01-27T11:49:33.850Z,3.37
2019-01-27T11:51:42.250Z,1.40
2019-01-27T11:53:46.019Z,3.90
2019-01-27T11:55:49.923Z,3.97
2019-01-27T11:57:53.678Z,3.07
2019-01-27T11:59:57.530Z,5.50
2019-01-27T12:02:01.812Z,3.73
2019-01-27T12:04:05.938Z,6.23
2019-01-27T12:06:10.069Z,3.20
2019-01-27T12:08:16.356Z,3.03
2019-01-27T12:10:20.358Z,4.13
2019-01-27T12:12:24.535Z,3.03
2019-01-27T12:14:28.511Z,4.30
2019-01-27T12:16:32.711Z,6.23
2019-01-27T12:18:36.583Z,2.60
2019-01-27T12:20:40.598Z,5.00
2019-01-27T12:22:44.551Z,2.57
2019-01-27T12:24:56.406Z,4.17
2019-01-27T12:27:00.818Z,1.20
2019-01-27T12:29:05.030Z,1.10
2019-01-27T12:31:09.271Z,1.93
2019-01-27T12:33:13.109Z,2.10
2019-01-27T12:35:17.088Z,1.23
2019-01-27T12:37:20.978Z,0.83
2019-01-27T12:39:24.730Z,0.63
2019-01-27T12:41:28.772Z,6.10
2019-01-27T12:43:33.211Z,1.47
2019-01-27T12:45:37.599Z,1.80
2019-01-27T12:47:41.556Z,1.93
2019-01-27T12:49:45.375Z,1.90
2019-01-27T12:51:49.278Z,1.43
2019-01-27T12:53:53.083Z,1.30
2019-01-27T12:55:56.971Z,3.37
2019-01-27T12:58:01.248Z,0.77
2019-01-27T13:00:26.487Z,1.63
2019-01-27T13:02:30.691Z,0.60
2019-01-27T13:04:34.610Z,0.97
2019-01-27T13:06:38.699Z,0.77
2019-01-27T13:08:47.435Z,2.23
2019-01-27T13:10:51.048Z,3.87
2019-01-27T13:12:55.036Z,1.50
2019-01-27T13:14:59.004Z,1.90
2019-01-27T13:17:07.424Z,0.80
2019-01-27T13:19:08.944Z,1.07
2019-01-27T13:21:14.102Z,1.80
2019-01-27T13:23:18.038Z,0.83
2019-01-27T13:25:22.145Z,0.80
2019-01-27T13:27:26.718Z,1.00
2019-01-27T13:29:32.399Z,0.63
2019-01-27T13:31:37.314Z,0.80
2019-01-27T13:33:41.467Z,1.00
2019-01-27T13:35:45.500Z,0.70
2019-01-27T13:37:49.680Z,2.33
2019-01-27T13:39:53.574Z,0.80
2019-01-27T13:41:57.445Z,1.10
2019-01-27T13:44:01.508Z,1.57
2019-01-27T13:46:05.698Z,1.40
2019-01-27T13:48:10.415Z,0.80
2019-01-27T13:50:14.727Z,1.10
2019-01-27T13:52:18.720Z,1.13
2019-01-27T13:54:22.613Z,1.13
2019-01-27T13:56:26.600Z,0.60
2019-01-27T13:58:30.733Z,0.50
2019-01-27T14:00:36.436Z,0.80
2019-01-27T14:02:40.528Z,0.60
2019-01-27T14:04:48.395Z,0.70
2019-01-27T14:06:50.141Z,1.30
2019-01-27T14:08:54.090Z,0.70
2019-01-27T14:10:58.040Z,1.03
2019-01-27T14:13:02.628Z,1.23
2019-01-27T14:15:12.690Z,1.00
2019-01-27T14:17:14.738Z,1.33
2019-01-27T14:19:18.700Z,1.00
2019-01-27T14:21:22.490Z,1.63
2019-01-27T14:23:26.418Z,1.00
2019-01-27T14:25:30.734Z,0.80
2019-01-27T14:27:34.954Z,1.63
2019-01-27T14:29:38.943Z,2.23
2019-01-27T14:31:43.230Z,0.90
2019-01-27T14:33:46.983Z,1.17
2019-01-27T14:35:51.158Z,1.57
2019-01-27T14:37:55.205Z,1.03
2019-01-27T14:39:59.114Z,1.00
2019-01-27T14:42:04.485Z,1.03
2019-01-27T14:44:08.375Z,1.70
2019-01-27T14:46:13.486Z,2.63
2019-01-27T14:48:17.603Z,1.40
2019-01-27T14:50:24.467Z,0.80
2019-01-27T14:52:28.464Z,0.97
2019-01-27T14:54:32.845Z,0.50
2019-01-27T14:56:36.955Z,0.93
2019-01-27T14:58:40.987Z,1.03
2019-01-27T15:00:45.244Z,0.70
2019-01-27T15:02:49.134Z,0.70
2019-01-27T15:04:52.955Z,1.07
2019-01-27T15:06:56.921Z,1.23
2019-01-27T15:09:01.396Z,1.90
2019-01-27T15:11:07.444Z,1.40
2019-01-27T15:13:11.497Z,0.70
2019-01-27T15:15:17.435Z,1.00
2019-01-27T15:17:21.285Z,3.87
2019-01-27T15:19:25.602Z,1.67
2019-01-27T15:21:29.543Z,1.93
2019-01-27T15:23:34.865Z,2.13
2019-01-27T15:25:38.967Z,1.80
2019-01-27T15:27:43.461Z,0.77
2019-01-27T15:29:47.371Z,1.40
2019-01-27T15:31:51.333Z,1.40
2019-01-27T15:33:55.298Z,1.87
2019-01-27T15:35:59.151Z,0.77
2019-01-27T15:38:03.811Z,1.70
2019-01-27T15:40:08.444Z,1.00
2019-01-27T15:42:12.378Z,1.00
2019-01-27T15:44:16.307Z,2.40
2019-01-27T15:46:20.220Z,1.17
2019-01-27T15:48:24.114Z,0.60
2019-01-27T15:50:30.039Z,0.77
2019-01-27T15:52:35.203Z,0.70
2019-01-27T15:54:39.232Z,0.80
2019-01-27T15:56:43.262Z,0.73
2019-01-27T15:58:47.219Z,0.90
2019-01-27T16:00:51.391Z,0.80
2019-01-27T16:02:55.446Z,0.63
2019-01-27T16:04:59.514Z,0.80
2019-01-27T16:07:03.900Z,0.80
2019-01-27T16:09:09.162Z,1.63
2019-01-27T16:11:13.181Z,0.60
2019-01-27T16:13:17.152Z,1.10
2019-01-27T16:15:23.564Z,1.43
2019-01-27T16:17:27.509Z,1.63
2019-01-27T16:19:32.023Z,1.87
2019-01-27T16:21:36.279Z,0.93
2019-01-27T16:23:52.343Z,1.33
2019-01-27T16:25:57.170Z,1.47
2019-01-27T16:28:01.630Z,1.93
2019-01-27T16:30:46.210Z,1.23
2019-01-27T16:32:59.035Z,1.20
2019-01-27T16:35:06.731Z,0.80
2019-01-27T16:37:11.260Z,0.70
2019-01-27T16:39:15.568Z,0.70
2019-01-27T16:41:19.408Z,0.93
2019-01-27T16:43:23.326Z,1.17
2019-01-27T16:45:27.267Z,0.70
2019-01-27T16:47:31.328Z,0.70
2019-01-27T16:49:36.078Z,0.80
2019-01-27T16:51:40.300Z,1.27
2019-01-27T16:53:44.385Z,1.13
2019-01-27T16:55:48.353Z,0.50
2019-01-27T16:57:52.324Z,0.50
2019-01-27T16:59:56.262Z,0.50
2019-01-27T17:02:00.198Z,0.60
2019-01-27T17:04:04.851Z,0.73
2019-01-27T17:06:09.200Z,0.60
2019-01-27T17:08:13.473Z,0.60
2019-01-27T17:10:17.982Z,0.70
2019-01-27T17:12:21.928Z,0.70
2019-01-27T17:14:25.920Z,0.80
2019-01-27T17:16:29.869Z,0.67
2019-01-27T17:18:34.767Z,2.10
2019-01-27T17:20:39.170Z,2.20
2019-01-27T17:22:43.207Z,0.93
2019-01-27T17:24:47.044Z,1.00
2019-01-27T17:26:51.519Z,0.90
2019-01-27T17:28:55.506Z,1.20
2019-01-27T17:30:59.311Z,1.00
2019-01-27T17:33:03.791Z,1.17
2019-01-27T17:35:09.495Z,1.07
2019-01-27T17:37:13.959Z,1.57
2019-01-27T17:39:17.822Z,1.30
2019-01-27T17:41:41.259Z,1.23
2019-01-27T17:43:45.486Z,2.10
2019-01-27T17:45:49.450Z,1.77
2019-01-27T17:47:53.377Z,1.60
2019-01-27T17:49:57.164Z,1.40
2019-01-27T17:52:01.135Z,2.37
2019-01-27T17:54:08.139Z,1.67
2019-01-27T17:56:13.978Z,1.70
2019-01-27T17:58:41.487Z,1.43
2019-01-27T18:01:04.363Z,1.60
2019-01-27T18:03:19.746Z,2.70
2019-01-27T18:05:35.552Z,3.03
2019-01-27T18:08:16.743Z,2.53
2019-01-27T18:10:34.536Z,3.77
2019-01-27T18:12:49.934Z,2.00
2019-01-27T18:14:53.850Z,2.97
2019-01-27T18:16:57.923Z,2.63
2019-01-27T18:19:01.668Z,4.07
2019-01-27T18:21:06.290Z,1.97
2019-01-27T18:23:10.583Z,2.23
2019-01-27T18:25:14.915Z,2.57
2019-01-27T18:27:18.727Z,4.03
2019-01-27T18:29:23.425Z,2.57
2019-01-27T18:31:27.171Z,5.90
2019-01-27T18:33:31.121Z,3.13
2019-01-27T18:35:35.996Z,5.83
2019-01-27T18:37:40.133Z,3.63
2019-01-27T18:39:44.070Z,7.10
2019-01-27T18:41:48.001Z,8.97
2019-01-27T18:43:52.411Z,3.63
2019-01-27T18:45:56.402Z,7.30
2019-01-27T18:48:00.196Z,6.07
2019-01-27T18:50:07.545Z,4.37
2019-01-27T18:52:11.606Z,5.83
2019-01-27T18:54:34.480Z,4.87
2019-01-27T18:56:44.085Z,7.60
2019-01-27T18:58:54.709Z,3.77
2019-01-27T19:01:16.444Z,4.97
2019-01-27T19:03:26.051Z,7.23
2019-01-27T19:05:46.949Z,7.13
2019-01-27T19:07:58.180Z,3.80
2019-01-27T19:10:21.123Z,7.73
2019-01-27T19:12:38.368Z,6.27
2019-01-27T19:14:54.353Z,6.63
2019-01-27T19:17:17.115Z,5.57
2019-01-27T19:19:43.077Z,10.03
2019-01-27T19:22:04.937Z,9.50
2019-01-27T19:24:31.420Z,64.60
2019-01-27T19:26:53.710Z,24.27
2019-01-27T19:29:11.502Z,8.60
2019-01-27T19:31:30.559Z,6.00
2019-01-27T19:33:54.331Z,24.07
2019-01-27T19:36:26.407Z,3.90
2019-01-27T19:38:52.234Z,11.60
2019-01-27T19:41:05.689Z,7.03
2019-01-27T19:43:34.751Z,7.40
2019-01-27T19:45:56.835Z,4.57
2019-01-27T19:48:25.938Z,6.47
2019-01-27T19:51:04.606Z,5.77
2019-01-27T19:53:23.851Z,4.03
2019-01-27T19:56:02.466Z,10.97
2019-01-27T19:58:25.999Z,4.03
2019-01-27T20:00:40.766Z,8.60
2019-01-27T20:02:54.430Z,6.03
2019-01-27T20:05:09.423Z,6.57
2019-01-27T20:07:20.136Z,4.57
2019-01-27T20:09:32.199Z,7.63
2019-01-27T20:11:49.707Z,7.90
2019-01-27T20:13:59.684Z,5.43
2019-01-27T20:16:21.690Z,5.70
2019-01-27T20:18:33.364Z,4.87
2019-01-27T20:21:02.579Z,11.37
2019-01-27T20:23:26.311Z,4.73
2019-01-27T20:25:47.572Z,8.90
2019-01-27T20:28:03.332Z,7.47
2019-01-27T20:30:16.691Z,4.47
2019-01-27T20:32:51.813Z,7.73
2019-01-27T20:35:18.319Z,10.70
2019-01-27T20:37:32.770Z,6.73
2019-01-27T20:39:49.764Z,7.87
2019-01-27T20:42:12.932Z,7.20
2019-01-27T20:44:31.763Z,5.10
2019-01-27T20:46:55.106Z,8.63
2019-01-27T20:49:15.164Z,6.77
2019-01-27T20:51:36.971Z,5.53
2019-01-27T20:54:03.195Z,6.67
2019-01-27T20:56:25.515Z,6.93
2019-01-27T20:58:45.994Z,9.33
2019-01-27T21:01:07.543Z,7.27
2019-01-27T21:03:35.833Z,8.17
2019-01-27T21:05:58.995Z,12.10
2019-01-27T21:08:10.731Z,6.73
2019-01-27T21:10:29.327Z,8.90
2019-01-27T21:12:52.232Z,8.33
2019-01-27T21:15:14.092Z,9.37
2019-01-27T21:17:26.318Z,6.57
2019-01-27T21:19:34.660Z,8.70
2019-01-27T21:21:39.151Z,4.90
2019-01-27T21:23:43.099Z,8.80
2019-01-27T21:25:47.202Z,5.30
2019-01-27T21:27:51.254Z,9.77
2019-01-27T21:29:55.306Z,8.00
2019-01-27T21:31:59.122Z,5.73
2019-01-27T21:34:03.077Z,8.30
2019-01-27T21:36:07.599Z,9.57
2019-01-27T21:38:11.898Z,6.07
2019-01-27T21:40:17.942Z,5.53
2019-01-27T21:42:21.798Z,4.73
2019-01-27T21:44:25.800Z,6.57
2019-01-27T21:46:29.766Z,10.17
2019-01-27T21:48:33.714Z,5.70
2019-01-27T21:50:38.375Z,6.93
2019-01-27T21:52:42.570Z,5.37
2019-01-27T21:54:46.526Z,5.13
2019-01-27T21:56:50.809Z,7.40
2019-01-27T21:58:54.698Z,7.77
2019-01-27T22:00:58.571Z,7.70
2019-01-27T22:03:02.460Z,6.17
2019-01-27T22:05:07.220Z,6.07
2019-01-27T22:07:11.746Z,6.10
2019-01-27T22:09:15.816Z,6.80
2019-01-27T22:11:19.810Z,5.73
2019-01-27T22:13:23.635Z,7.77
2019-01-27T22:15:27.596Z,4.30
2019-01-27T22:17:31.732Z,6.73
2019-01-27T22:19:36.012Z,5.83
2019-01-27T22:21:40.314Z,4.87
2019-01-27T22:23:44.464Z,5.43
2019-01-27T22:25:48.483Z,4.57
2019-01-27T22:27:52.394Z,7.27
2019-01-27T22:29:56.163Z,6.27
2019-01-27T22:31:59.952Z,5.57
2019-01-27T22:34:03.822Z,6.87
2019-01-27T22:36:08.508Z,6.70
2019-01-27T22:38:12.566Z,2.83
2019-01-27T22:40:16.987Z,8.03
2019-01-27T22:42:20.896Z,3.10
2019-01-27T22:44:44.108Z,4.10
2019-01-27T22:46:48.002Z,5.40
2019-01-27T22:48:51.987Z,8.40
2019-01-27T22:50:55.909Z,3.97
2019-01-27T22:52:59.714Z,8.67
2019-01-27T22:55:03.819Z,6.50
2019-01-27T22:57:09.265Z,8.40
2019-01-27T22:59:13.398Z,6.23
2019-01-27T23:01:19.199Z,6.00
2019-01-27T23:03:23.434Z,9.53
2019-01-27T23:05:27.275Z,6.13
2019-01-27T23:07:31.084Z,10.67
2019-01-27T23:09:35.136Z,8.00
2019-01-27T23:11:39.436Z,6.33
2019-01-27T23:13:43.602Z,6.03
2019-01-27T23:15:47.819Z,8.07
2019-01-27T23:17:51.645Z,8.33
2019-01-27T23:19:55.488Z,6.10
2019-01-27T23:21:59.403Z,9.50
2019-01-27T23:24:03.302Z,9.27
2019-01-27T23:26:08.695Z,8.40
2019-01-27T23:28:12.889Z,7.20
2019-01-27T23:30:16.920Z,5.53
2019-01-27T23:32:20.814Z,8.50
2019-01-27T23:34:24.649Z,13.27
2019-01-27T23:36:29.038Z,8.40
2019-01-27T23:38:32.891Z,7.43
2019-01-27T23:40:37.396Z,8.57
2019-01-27T23:42:41.542Z,7.03
2019-01-27T23:44:45.586Z,6.87
2019-01-27T23:46:49.471Z,6.07
2019-01-27T23:49:04.834Z,7.33
2019-01-27T23:51:09.753Z,5.07
2019-01-27T23:53:13.914Z,5.23
2019-01-27T23:55:17.960Z,4.00
2019-01-27T23:57:22.815Z,6.27
2019-01-27T23:59:26.562Z,6.33
